createdAt,value
2022-08-09T00:01:54.575Z,99283.91
2022-08-09T00:04:34.120Z,99294.31
2022-08-09T00:07:10.442Z,99292.53
2022-08-09T00:09:39.987Z,99315.16
2022-08-09T00:12:09.377Z,99308.97
2022-08-09T00:14:55.881Z,99319.03
2022-08-09T00:18:05.425Z,99315.66
2022-08-09T00:20:13.769Z,99323.88
2022-08-09T00:22:43.227Z,99330.13
2022-08-09T00:25:15.537Z,99322.94
2022-08-09T00:27:51.522Z,99315.78
2022-08-09T00:30:24.837Z,99323.31
2022-08-09T00:32:53.770Z,99323.88
2022-08-09T00:35:24.058Z,99325.69
2022-08-09T00:37:52.007Z,99318.91
2022-08-09T00:40:21.621Z,99313.88
2022-08-09T00:44:17.019Z,99320.25
2022-08-09T00:45:50.494Z,99316.56
2022-08-09T00:48:21.911Z,99328.47
2022-08-09T00:50:52.120Z,99337.34
2022-08-09T00:53:24.000Z,99343.63
2022-08-09T00:56:05.906Z,99346.00
2022-08-09T00:58:38.076Z,99344.16
2022-08-09T01:01:44.583Z,99340.66
2022-08-09T01:04:27.870Z,99343.94
2022-08-09T01:07:20.755Z,99338.66
2022-08-09T01:10:14.856Z,99339.09
2022-08-09T01:13:23.831Z,99335.19
2022-08-09T01:16:02.308Z,99350.19
2022-08-09T01:18:34.734Z,99346.75
2022-08-09T01:21:50.848Z,99338.97
2022-08-09T01:24:57.377Z,99335.56
2022-08-09T01:27:31.665Z,99341.00
2022-08-09T01:30:08.369Z,99330.16
2022-08-09T01:32:58.050Z,99339.84
2022-08-09T01:35:47.541Z,99343.34
2022-08-09T01:38:26.226Z,99337.22
2022-08-09T01:41:08.054Z,99331.78
2022-08-09T01:43:51.927Z,99335.44
2022-08-09T01:46:30.146Z,99329.00
2022-08-09T01:49:23.980Z,99335.81
2022-08-09T01:51:58.087Z,99338.94
2022-08-09T01:54:44.380Z,99347.25
2022-08-09T01:57:21.058Z,99343.13
2022-08-09T01:59:53.865Z,99343.66
2022-08-09T02:02:32.181Z,99344.75
2022-08-09T02:05:15.525Z,99340.09
2022-08-09T02:08:41.254Z,99344.75
2022-08-09T02:13:37.435Z,99355.66
2022-08-09T02:16:12.330Z,99340.88
2022-08-09T02:18:47.799Z,99346.31
2022-08-09T02:21:22.274Z,99338.81
2022-08-09T02:23:57.897Z,99341.56
2022-08-09T02:26:30.177Z,99336.31
2022-08-09T02:29:09.365Z,99338.56
2022-08-09T02:31:43.649Z,99339.28
2022-08-09T02:34:40.684Z,99333.53
2022-08-09T02:37:14.971Z,99318.09
2022-08-09T02:39:55.394Z,99332.59
2022-08-09T02:42:37.160Z,99335.91
2022-08-09T02:45:18.161Z,99333.03
2022-08-09T02:47:59.447Z,99329.06
2022-08-09T02:50:36.588Z,99331.97
2022-08-09T02:53:25.797Z,99331.47
2022-08-09T02:55:58.997Z,99340.03
2022-08-09T02:58:38.032Z,99335.28
2022-08-09T03:01:10.956Z,99330.53
2022-08-09T03:04:16.578Z,99332.59
2022-08-09T03:06:34.360Z,99336.16
2022-08-09T03:09:06.432Z,99334.56
2022-08-09T03:12:06.749Z,99333.28
2022-08-09T03:14:28.192Z,99341.75
2022-08-09T03:16:58.938Z,99340.44
2022-08-09T03:19:59.454Z,99330.81
2022-08-09T03:22:25.568Z,99333.16
2022-08-09T03:25:21.684Z,99334.97
2022-08-09T03:27:52.588Z,99333.34
2022-08-09T03:30:33.458Z,99324.94
2022-08-09T03:33:17.168Z,99323.88
2022-08-09T03:36:16.546Z,99329.47
2022-08-09T03:38:41.886Z,99333.31
2022-08-09T03:41:16.629Z,99326.81
2022-08-09T03:44:04.036Z,99320.50
2022-08-09T03:46:36.960Z,99327.16
2022-08-09T03:49:08.180Z,99331.97
2022-08-09T03:51:58.825Z,99328.59
2022-08-09T03:54:38.387Z,99336.53
2022-08-09T03:57:20.662Z,99333.94
2022-08-09T03:59:55.303Z,99343.97
2022-08-09T04:02:28.491Z,99339.06
2022-08-09T04:05:00.723Z,99332.31
2022-08-09T04:07:47.899Z,99336.22
2022-08-09T04:10:20.727Z,99333.94
2022-08-09T04:12:54.359Z,99343.34
2022-08-09T04:15:39.140Z,99338.44
2022-08-09T04:18:16.439Z,99350.94
2022-08-09T04:20:49.242Z,99345.59
2022-08-09T04:23:17.839Z,99346.66
2022-08-09T04:25:51.913Z,99346.59
2022-08-09T04:28:33.367Z,99357.41
2022-08-09T04:31:08.380Z,99358.38
2022-08-09T04:33:47.219Z,99357.00
2022-08-09T04:36:28.300Z,99361.38
2022-08-09T04:39:00.716Z,99367.09
2022-08-09T04:41:32.453Z,99375.69
2022-08-09T04:44:05.727Z,99381.44
2022-08-09T04:46:36.548Z,99386.34
2022-08-09T04:49:40.235Z,99383.00
2022-08-09T04:52:18.610Z,99387.38
2022-08-09T04:54:52.144Z,99397.72
2022-08-09T04:57:21.443Z,99396.09
2022-08-09T04:59:54.501Z,99398.81
2022-08-09T05:02:27.230Z,99398.53
2022-08-09T05:04:56.302Z,99406.97
2022-08-09T05:07:29.242Z,99411.59
2022-08-09T05:10:01.735Z,99404.31
2022-08-09T05:12:33.190Z,99401.25
2022-08-09T05:15:03.283Z,99411.06
2022-08-09T05:18:50.461Z,99408.09
2022-08-09T05:20:20.271Z,99408.00
2022-08-09T05:23:56.934Z,99405.22
2022-08-09T05:25:38.738Z,99416.47
2022-08-09T05:28:09.639Z,99422.63
2022-08-09T05:30:37.651Z,99422.19
2022-08-09T05:33:15.787Z,99418.19
2022-08-09T05:35:46.724Z,99425.00
2022-08-09T05:38:22.164Z,99427.06
2022-08-09T05:40:50.929Z,99427.59
2022-08-09T05:43:20.787Z,99432.28
2022-08-09T05:45:55.840Z,99424.13
2022-08-09T05:48:32.768Z,99427.81
2022-08-09T05:51:42.311Z,99427.97
2022-08-09T05:53:56.785Z,99425.44
2022-08-09T05:56:27.665Z,99422.88
2022-08-09T05:58:58.898Z,99426.56
2022-08-09T06:01:33.564Z,99421.38
2022-08-09T06:04:12.349Z,99430.75
2022-08-09T06:06:46.719Z,99435.00
2022-08-09T06:09:41.106Z,99435.66
2022-08-09T06:12:08.435Z,99432.63
2022-08-09T06:14:36.961Z,99438.19
2022-08-09T06:17:09.303Z,99434.63
2022-08-09T06:19:38.675Z,99442.69
2022-08-09T06:22:06.929Z,99436.28
2022-08-09T06:24:43.734Z,99445.28
2022-08-09T06:27:11.596Z,99439.81
2022-08-09T06:29:48.027Z,99441.78
2022-08-09T06:33:13.560Z,99446.75
2022-08-09T06:35:21.031Z,99442.13
2022-08-09T06:38:05.747Z,99438.53
2022-08-09T06:40:34.845Z,99438.88
2022-08-09T06:43:03.738Z,99429.75
2022-08-09T06:46:07.213Z,99429.34
2022-08-09T06:48:30.489Z,99432.25
2022-08-09T06:51:04.507Z,99440.84
2022-08-09T06:53:38.440Z,99426.88
2022-08-09T06:56:09.285Z,99436.28
2022-08-09T07:00:47.330Z,99437.06
2022-08-09T07:01:27.452Z,99429.09
2022-08-09T07:04:04.359Z,99424.75
2022-08-09T07:06:32.890Z,99432.88
2022-08-09T07:09:02.497Z,99419.03
2022-08-09T07:11:45.499Z,99420.72
2022-08-09T07:14:26.364Z,99415.66
2022-08-09T07:16:58.378Z,99417.53
2022-08-09T07:19:27.265Z,99426.25
2022-08-09T07:21:59.115Z,99423.72
2022-08-09T07:24:32.247Z,99418.88
2022-08-09T07:27:26.904Z,99424.88
2022-08-09T07:30:00.989Z,99427.59
2022-08-09T07:32:32.545Z,99425.38
2022-08-09T07:35:08.197Z,99428.84
2022-08-09T07:37:45.779Z,99432.47
2022-08-09T07:40:18.924Z,99433.25
2022-08-09T07:42:55.733Z,99423.22
2022-08-09T07:45:39.389Z,99432.66
2022-08-09T07:48:25.662Z,99422.81
2022-08-09T07:51:03.034Z,99432.13
2022-08-09T07:54:05.022Z,99430.50
2022-08-09T07:56:28.086Z,99429.28
2022-08-09T07:58:59.799Z,99435.25
2022-08-09T08:01:32.847Z,99432.19
2022-08-09T08:04:02.708Z,99424.13
2022-08-09T08:06:32.666Z,99438.44
2022-08-09T08:09:07.516Z,99433.72
2022-08-09T08:12:10.226Z,99448.28
2022-08-09T08:14:26.504Z,99446.72
2022-08-09T08:17:00.660Z,99443.91
2022-08-09T08:19:35.240Z,99446.53
2022-08-09T08:22:04.761Z,99445.78
2022-08-09T08:24:39.842Z,99452.28
2022-08-09T08:27:17.132Z,99441.38
2022-08-09T08:29:48.519Z,99439.06
2022-08-09T08:32:28.800Z,99441.66
2022-08-09T08:34:59.291Z,99441.66
2022-08-09T08:37:42.048Z,99438.00
2022-08-09T08:40:16.529Z,99435.41
2022-08-09T08:42:47.597Z,99436.47
2022-08-09T08:45:36.965Z,99437.06
2022-08-09T08:48:06.656Z,99439.41
2022-08-09T08:50:38.555Z,99432.16
2022-08-09T08:53:11.829Z,99436.03
2022-08-09T08:55:44.149Z,99438.16
2022-08-09T08:58:12.165Z,99436.56
2022-08-09T09:00:42.949Z,99431.38
2022-08-09T09:03:25.281Z,99437.63
2022-08-09T09:06:05.881Z,99442.84
2022-08-09T09:08:41.099Z,99430.59
2022-08-09T09:11:17.664Z,99434.25
2022-08-09T09:13:56.830Z,99436.56
2022-08-09T09:16:34.041Z,99435.53
2022-08-09T09:19:22.501Z,99431.88
2022-08-09T09:22:16.251Z,99429.06
2022-08-09T09:24:50.169Z,99429.81
2022-08-09T09:28:05.154Z,99434.25
2022-08-09T09:30:38.098Z,99433.72
2022-08-09T09:33:16.471Z,99433.47
2022-08-09T09:36:03.961Z,99427.47
2022-08-09T09:38:58.083Z,99434.75
2022-08-09T09:41:28.019Z,99426.94
2022-08-09T09:44:12.856Z,99426.41
2022-08-09T09:46:51.018Z,99429.84
2022-08-09T09:49:56.687Z,99433.47
2022-08-09T09:52:33.447Z,99420.94
2022-08-09T09:55:27.687Z,99419.13
2022-08-09T09:58:18.996Z,99418.38
2022-08-09T10:00:58.701Z,99417.59
2022-08-09T10:03:43.275Z,99414.47
2022-08-09T10:06:13.188Z,99406.41
2022-08-09T10:08:55.151Z,99407.66
2022-08-09T10:12:00.345Z,99403.25
2022-08-09T10:14:33.105Z,99401.63
2022-08-09T10:17:39.339Z,99404.22
2022-08-09T10:20:10.836Z,99394.31
2022-08-09T10:22:45.182Z,99402.63
2022-08-09T10:25:15.316Z,99405.50
2022-08-09T10:27:57.229Z,99398.97
2022-08-09T10:31:59.979Z,99390.38
2022-08-09T10:34:04.455Z,99395.31
2022-08-09T10:36:09.526Z,99398.47
2022-08-09T10:38:57.017Z,99390.59
2022-08-09T10:41:28.274Z,99398.66
2022-08-09T10:44:00.085Z,99393.16
2022-08-09T10:46:57.808Z,99402.25
2022-08-09T10:49:54.034Z,99397.28
2022-08-09T10:52:37.463Z,99406.63
2022-08-09T10:55:28.755Z,99394.78
2022-08-09T10:58:34.983Z,99389.41
2022-08-09T11:03:02.693Z,99396.53
2022-08-09T11:04:27.962Z,99390.94
2022-08-09T11:07:02.433Z,99381.00
2022-08-09T11:09:41.320Z,99379.84
2022-08-09T11:12:17.739Z,99376.75
2022-08-09T11:15:18.068Z,99381.53
2022-08-09T11:17:53.376Z,99370.00
2022-08-09T11:20:49.733Z,99368.97
2022-08-09T11:23:23.839Z,99373.09
2022-08-09T11:25:57.801Z,99356.34
2022-08-09T11:28:56.333Z,99352.13
2022-08-09T11:31:48.822Z,99352.00
2022-08-09T11:34:51.645Z,99352.44
2022-08-09T11:37:27.990Z,99351.59
2022-08-09T11:40:11.817Z,99354.31
2022-08-09T11:42:48.760Z,99357.00
2022-08-09T11:45:43.451Z,99355.28
2022-08-09T11:48:28.307Z,99348.34
2022-08-09T11:52:49.523Z,99349.19
2022-08-09T11:53:58.759Z,99342.19
2022-08-09T11:56:41.380Z,99353.41
2022-08-09T11:59:23.754Z,99350.75
2022-08-09T12:02:34.909Z,99346.91
2022-08-09T12:04:47.492Z,99339.06
2022-08-09T12:07:18.904Z,99347.19
2022-08-09T12:09:50.553Z,99351.13
2022-08-09T12:12:20.509Z,99340.22
2022-08-09T12:15:07.622Z,99347.03
2022-08-09T12:17:43.377Z,99339.47
2022-08-09T12:20:21.679Z,99346.28
2022-08-09T12:23:01.333Z,99342.16
2022-08-09T12:25:37.556Z,99348.69
2022-08-09T12:28:59.532Z,99338.00
2022-08-09T12:31:30.993Z,99342.47
2022-08-09T12:34:14.141Z,99335.72
2022-08-09T12:36:58.607Z,99333.09
2022-08-09T12:39:39.272Z,99337.81
2022-08-09T12:42:16.663Z,99332.59
2022-08-09T12:44:51.926Z,99327.13
2022-08-09T12:47:23.383Z,99325.34
2022-08-09T12:50:10.100Z,99324.28
2022-08-09T12:53:09.266Z,99325.56
2022-08-09T12:56:15.859Z,99310.63
2022-08-09T12:58:27.334Z,99316.38
2022-08-09T13:00:57.682Z,99306.69
2022-08-09T13:03:53.385Z,99309.47
2022-08-09T13:06:49.899Z,99308.38
2022-08-09T13:09:31.840Z,99307.75
2022-08-09T13:12:10.932Z,99311.34
2022-08-09T13:14:42.486Z,99300.22
2022-08-09T13:17:43.814Z,99299.34
2022-08-09T13:20:16.267Z,99306.97
2022-08-09T13:23:04.784Z,99302.59
2022-08-09T13:25:54.388Z,99311.31
2022-08-09T13:28:34.606Z,99318.16
2022-08-09T13:32:20.210Z,99317.66
2022-08-09T13:34:03.169Z,99323.63
2022-08-09T13:36:40.632Z,99311.81
2022-08-09T13:41:17.423Z,99313.09
2022-08-09T13:42:12.626Z,99312.31
2022-08-09T13:44:48.651Z,99307.13
2022-08-09T13:47:33.769Z,99302.94
2022-08-09T13:50:18.263Z,99300.28
2022-08-09T13:52:59.125Z,99294.38
2022-08-09T13:55:28.875Z,99291.44
2022-08-09T13:57:58.440Z,99293.47
2022-08-09T14:00:30.380Z,99296.25
2022-08-09T14:03:04.534Z,99284.38
2022-08-09T14:06:00.527Z,99292.22
2022-08-09T14:08:31.837Z,99291.91
2022-08-09T14:11:01.273Z,99289.13
2022-08-09T14:14:22.539Z,99293.38
2022-08-09T14:16:28.600Z,99297.50
2022-08-09T14:18:58.240Z,99285.47
2022-08-09T14:21:29.648Z,99287.47
2022-08-09T14:24:05.356Z,99292.13
2022-08-09T14:26:38.597Z,99287.78
2022-08-09T14:30:04.089Z,99292.47
2022-08-09T14:32:10.710Z,99289.22
2022-08-09T14:34:41.503Z,99288.56
2022-08-09T14:37:09.927Z,99292.22
2022-08-09T14:39:46.739Z,99280.72
2022-08-09T14:42:40.577Z,99282.63
2022-08-09T14:46:39.172Z,99283.53
2022-08-09T14:48:02.122Z,99281.25
2022-08-09T14:50:35.031Z,99288.94
2022-08-09T14:53:11.897Z,99279.97
2022-08-09T14:55:49.866Z,99287.00
2022-08-09T14:58:19.703Z,99285.44
2022-08-09T15:00:51.227Z,99285.47
2022-08-09T15:03:20.875Z,99282.06
2022-08-09T15:05:52.621Z,99279.69
2022-08-09T15:08:24.846Z,99275.72
2022-08-09T15:11:01.801Z,99276.91
2022-08-09T15:13:48.030Z,99285.25
2022-08-09T15:16:21.501Z,99274.16
2022-08-09T15:18:49.828Z,99278.22
2022-08-09T15:21:58.617Z,99279.81
2022-08-09T15:24:12.815Z,99275.56
2022-08-09T15:26:45.370Z,99278.56
2022-08-09T15:30:58.329Z,99265.63
2022-08-09T15:32:04.957Z,99282.91
2022-08-09T15:34:53.262Z,99277.75
2022-08-09T15:38:10.694Z,99282.00
2022-08-09T15:43:24.740Z,99283.13
2022-08-09T15:46:28.256Z,99294.56
2022-08-09T15:49:04.856Z,99288.88
2022-08-09T15:52:01.938Z,99287.81
2022-08-09T15:54:31.241Z,99296.66
2022-08-09T15:57:08.593Z,99291.47
2022-08-09T15:59:37.595Z,99291.47
2022-08-09T16:02:05.734Z,99291.22
2022-08-09T16:04:35.574Z,99289.41
2022-08-09T16:07:05.361Z,99303.94
2022-08-09T16:09:57.918Z,99306.06
2022-08-09T16:12:21.924Z,99303.94
2022-08-09T16:14:54.071Z,99303.16
2022-08-09T16:17:22.358Z,99303.94
2022-08-09T16:20:04.476Z,99296.13
2022-08-09T16:22:42.331Z,99297.44
2022-08-09T16:25:13.169Z,99296.38
2022-08-09T16:27:43.666Z,99303.94
2022-08-09T16:30:29.583Z,99310.16
2022-08-09T16:33:09.862Z,99311.44
2022-08-09T16:35:56.100Z,99317.91
2022-08-09T16:38:26.506Z,99318.44
2022-08-09T16:40:55.471Z,99321.78
2022-08-09T16:43:23.569Z,99314.00
2022-08-09T16:45:53.841Z,99325.94
2022-08-09T16:48:39.385Z,99327.75
2022-08-09T16:51:14.247Z,99337.56
2022-08-09T16:54:22.428Z,99330.78
2022-08-09T16:56:34.902Z,99339.34
2022-08-09T16:59:10.705Z,99342.16
2022-08-09T17:01:39.199Z,99343.41
2022-08-09T17:04:11.222Z,99340.03
2022-08-09T17:08:41.409Z,99340.03
2022-08-09T17:09:46.223Z,99342.59
2022-08-09T17:12:16.249Z,99342.34
2022-08-09T17:14:46.384Z,99354.53
2022-08-09T17:17:26.088Z,99352.16
2022-08-09T17:20:32.714Z,99356.56
2022-08-09T17:22:50.343Z,99357.56
2022-08-09T17:25:22.311Z,99363.25
2022-08-09T17:27:54.929Z,99359.34
2022-08-09T17:30:30.775Z,99365.06
2022-08-09T17:33:05.521Z,99359.06
2022-08-09T17:35:50.703Z,99366.78
2022-08-09T17:38:29.237Z,99365.22
2022-08-09T17:41:03.122Z,99366.53
2022-08-09T17:43:35.416Z,99365.72
2022-08-09T17:46:09.020Z,99370.38
2022-08-09T17:48:51.545Z,99371.13
2022-08-09T17:51:21.063Z,99371.59
2022-08-09T17:53:54.920Z,99378.34
2022-08-09T17:56:35.874Z,99382.22
2022-08-09T17:59:09.540Z,99385.34
2022-08-09T18:02:06.731Z,99386.91
2022-08-09T18:04:32.971Z,99378.59
2022-08-09T18:07:04.464Z,99384.81
2022-08-09T18:09:41.463Z,99381.13
2022-08-09T18:12:19.701Z,99387.88
2022-08-09T18:14:54.997Z,99391.50
2022-08-09T18:18:02.470Z,99393.06
2022-08-09T18:20:55.365Z,99400.06
2022-08-09T18:23:06.989Z,99408.63
2022-08-09T18:25:50.285Z,99413.34
2022-08-09T18:30:39.575Z,99419.38
2022-08-09T18:31:15.206Z,99415.25
2022-08-09T18:33:54.030Z,99424.16
2022-08-09T18:36:25.773Z,99430.13
2022-08-09T18:39:02.865Z,99430.69
2022-08-09T18:41:34.709Z,99434.59
2022-08-09T18:44:12.464Z,99430.19
2022-08-09T18:46:46.547Z,99431.22
2022-08-09T18:49:32.389Z,99431.94
2022-08-09T18:52:12.958Z,99424.94
2022-08-09T18:54:49.545Z,99434.84
2022-08-09T18:57:23.939Z,99441.66
2022-08-09T19:00:11.053Z,99431.78
2022-08-09T19:02:40.116Z,99434.66
2022-08-09T19:05:20.256Z,99444.34
2022-08-09T19:08:03.721Z,99441.78
2022-08-09T19:10:39.921Z,99440.53
2022-08-09T19:13:19.269Z,99444.94
2022-08-09T19:15:56.239Z,99442.66
2022-08-09T19:18:35.681Z,99448.09
2022-08-09T19:21:10.436Z,99449.88
2022-08-09T19:24:33.533Z,99451.16
2022-08-09T19:26:32.276Z,99452.97
2022-08-09T19:29:15.239Z,99462.59
2022-08-09T19:31:51.115Z,99459.53
2022-08-09T19:34:22.611Z,99457.97
2022-08-09T19:36:57.910Z,99452.53
2022-08-09T19:39:28.929Z,99450.13
2022-08-09T19:42:19.573Z,99444.13
2022-08-09T19:44:51.157Z,99452.66
2022-08-09T19:47:22.720Z,99451.84
2022-08-09T19:50:09.443Z,99449.03
2022-08-09T19:52:51.921Z,99452.16
2022-08-09T19:55:25.501Z,99444.63
2022-08-09T19:57:54.149Z,99440.22
2022-08-09T20:00:22.124Z,99433.97
2022-08-09T20:04:11.549Z,99441.72
2022-08-09T20:05:46.834Z,99431.84
2022-08-09T20:08:24.774Z,99427.75
2022-08-09T20:11:04.085Z,99425.41
2022-08-09T20:13:37.135Z,99423.66
2022-08-09T20:16:36.847Z,99413.22
2022-08-09T20:19:42.639Z,99420.97
2022-08-09T20:21:54.994Z,99421.69
2022-08-09T20:24:29.738Z,99409.94
2022-08-09T20:27:08.005Z,99409.16
2022-08-09T20:29:39.695Z,99406.31
2022-08-09T20:32:30.773Z,99405.06
2022-08-09T20:34:59.439Z,99403.47
2022-08-09T20:37:37.316Z,99397.69
2022-08-09T20:40:26.327Z,99407.81
2022-08-09T20:42:59.885Z,99398.16
2022-08-09T20:46:01.767Z,99402.53
2022-08-09T20:48:32.888Z,99399.91
2022-08-09T20:51:02.929Z,99410.03
2022-08-09T20:53:36.565Z,99400.38
2022-08-09T20:56:21.182Z,99411.78
2022-08-09T20:58:54.539Z,99400.13
2022-08-09T21:01:34.378Z,99399.88
2022-08-09T21:05:54.620Z,99405.56
2022-08-09T21:07:12.195Z,99404.00
2022-08-09T21:09:55.232Z,99411.28
2022-08-09T21:15:15.921Z,99408.16
2022-08-09T21:18:23.696Z,99395.19
2022-08-09T21:20:35.399Z,99398.34
2022-08-09T21:23:04.288Z,99399.91
2022-08-09T21:25:56.173Z,99405.09
2022-08-09T21:28:36.172Z,99403.50
2022-08-09T21:31:17.669Z,99395.13
2022-08-09T21:33:52.787Z,99395.34
2022-08-09T21:36:28.897Z,99400.75
2022-08-09T21:38:59.307Z,99398.97
2022-08-09T21:42:05.712Z,99389.38
2022-08-09T21:44:33.507Z,99388.81
2022-08-09T21:47:09.847Z,99386.13
2022-08-09T21:49:43.036Z,99376.22
2022-08-09T21:52:20.357Z,99376.16
2022-08-09T21:55:03.329Z,99375.13
2022-08-09T21:57:39.071Z,99383.50
2022-08-09T22:00:32.193Z,99389.00
2022-08-09T22:03:05.968Z,99389.88
2022-08-09T22:05:42.392Z,99378.53
2022-08-09T22:08:14.603Z,99384.50
2022-08-09T22:11:00.216Z,99382.69
2022-08-09T22:13:36.749Z,99386.91
2022-08-09T22:16:08.855Z,99389.00
2022-08-09T22:18:53.572Z,99389.53
2022-08-09T22:21:45.349Z,99385.91
2022-08-09T22:24:24.225Z,99378.13
2022-08-09T22:26:54.402Z,99379.38
2022-08-09T22:29:27.059Z,99373.41
2022-08-09T22:32:00.491Z,99372.25
2022-08-09T22:34:29.300Z,99365.16
2022-08-09T22:36:59.097Z,99374.16
2022-08-09T22:39:56.347Z,99362.69
2022-08-09T22:42:22.510Z,99370.47
2022-08-09T22:44:56.644Z,99372.84
2022-08-09T22:48:10.774Z,99381.66
2022-08-09T22:50:32.266Z,99379.59
2022-08-09T22:53:03.808Z,99383.75
2022-08-09T22:56:29.609Z,99386.09
2022-08-09T22:58:32.782Z,99385.56
2022-08-09T23:01:06.148Z,99391.84
2022-08-09T23:04:04.732Z,99398.78
2022-08-09T23:06:34.673Z,99398.00
2022-08-09T23:09:07.647Z,99396.72
2022-08-09T23:11:35.755Z,99404.16
2022-08-09T23:14:09.807Z,99400.94
2022-08-09T23:16:38.394Z,99409.13
2022-08-09T23:19:06.383Z,99402.56
2022-08-09T23:21:36.025Z,99405.91
2022-08-09T23:24:07.184Z,99396.03
2022-08-09T23:26:39.677Z,99403.03
2022-08-09T23:29:14.135Z,99397.09
2022-08-09T23:31:42.834Z,99394.03
2022-08-09T23:34:11.041Z,99400.53
2022-08-09T23:36:38.957Z,99392.03
2022-08-09T23:39:08.182Z,99390.19
2022-08-09T23:41:36.937Z,99400.22
2022-08-09T23:44:05.574Z,99396.03
2022-08-09T23:46:33.732Z,99398.84
2022-08-09T23:49:02.217Z,99392.88
2022-08-09T23:51:30.144Z,99391.63
2022-08-09T23:54:02.351Z,99391.69
2022-08-09T23:56:52.884Z,99390.72
2022-08-09T23:59:24.550Z,99389.44
